»·PEaware :: AAL54 KLAX-KDFW

AAL54 :: KLAX-KDFW

FLIGHT INFORMATION

Flight Status: Arrived
Operator:
American Airlines
More flights by this operator :: More flights under this callsign
Pilot: Drew L. (13237)
Aircraft: BOEING 767-200
(B762)
More flights by this aircraft type
Origin: KLAX Los Angeles Intl
United States
Destination: KDFW Dallas-Ft Worth Intl
United States
More flights between these airports :: More routes between these airports
Route: DOTSS2 CNERY BLH J169 TFD J50 SSO J4 INK GEEKY BOOVE4
File this flight plan on PilotEdge
Remarks: RMK / SIMBRIEF
Altitude:
(Current/Filed)
39,000ft
Speed:
(Current/Filed)
470kts
Departed: 27-Sep-20 06:12 PM
Arrived: 27-Sep-20 08:51 PM
Distance/Time
Traveled:
1070nm/2:39
Distance/Time
To Go:
Arrived

Flight Plot

Page will automatically refresh every two minutes.

Flight plan parsing failed; only flown route is shown


Map Options




Map Legend


Flown Route
Filed Route
Departure Airport
Arrival Airport
Navaid (VOR, NDB)
Fix

Horizontal Profiles

Position Reports

Time Latitude Longitude Heading Altitude Ground
Speed
27-Sep-20 17:28 33.939603 -118.405967 321 126ft 0kts
27-Sep-20 17:29 33.939603 -118.405967 321 126ft 0kts
27-Sep-20 17:30 33.939603 -118.405967 321 126ft 0kts
27-Sep-20 17:31 33.939603 -118.405967 321 126ft 0kts
27-Sep-20 17:32 33.939603 -118.405967 321 126ft 0kts
27-Sep-20 17:33 33.939603 -118.405967 321 126ft 0kts
27-Sep-20 17:34 33.939603 -118.405967 321 126ft 0kts
27-Sep-20 17:35 33.939603 -118.405967 321 126ft 0kts
27-Sep-20 17:36 33.939603 -118.405967 321 126ft 0kts
27-Sep-20 17:37 33.939603 -118.405967 321 126ft 0kts
27-Sep-20 17:38 33.939603 -118.405967 322 126ft 0kts
27-Sep-20 17:39 33.939603 -118.405967 322 126ft 0kts
27-Sep-20 17:40 33.939603 -118.405967 322 126ft 0kts
27-Sep-20 17:41 33.939603 -118.405967 322 126ft 0kts
27-Sep-20 17:42 33.939603 -118.405967 322 126ft 0kts
27-Sep-20 17:43 33.939603 -118.405967 322 126ft 0kts
27-Sep-20 17:44 33.939603 -118.405967 322 126ft 0kts
27-Sep-20 17:45 33.939603 -118.405967 322 126ft 0kts
27-Sep-20 17:45 33.939603 -118.405967 322 126ft 0kts
27-Sep-20 17:47 33.939603 -118.405967 322 126ft 0kts
27-Sep-20 17:47 33.939603 -118.405967 322 126ft 0kts
27-Sep-20 17:48 33.939603 -118.405967 322 126ft 0kts
27-Sep-20 17:50 33.939603 -118.405967 322 126ft 0kts
27-Sep-20 17:50 33.939603 -118.405967 322 126ft 0kts
27-Sep-20 17:51 33.939603 -118.405967 322 126ft 0kts
27-Sep-20 17:52 33.939603 -118.405967 322 126ft 0kts
27-Sep-20 17:53 33.939243 -118.405607 307 126ft 2kts
27-Sep-20 17:54 33.939101 -118.404927 260 126ft 2kts
27-Sep-20 17:55 33.939146 -118.404523 262 125ft 0kts
27-Sep-20 17:56 33.939146 -118.404523 263 125ft 0kts
27-Sep-20 17:57 33.939146 -118.404523 263 125ft 0kts
27-Sep-20 17:58 33.939146 -118.404523 262 125ft 0kts
27-Sep-20 17:59 33.939146 -118.404523 262 125ft 0kts
27-Sep-20 18:00 33.939146 -118.404523 263 125ft 0kts
27-Sep-20 18:01 33.939146 -118.404523 263 125ft 0kts
27-Sep-20 18:02 33.939145 -118.404530 263 125ft 0kts
27-Sep-20 18:03 33.938284 -118.404795 86 126ft 11kts
27-Sep-20 18:04 33.938914 -118.398567 83 117ft 21kts
27-Sep-20 18:05 33.939660 -118.391369 82 109ft 21kts
27-Sep-20 18:06 33.940303 -118.385152 82 106ft 15kts
27-Sep-20 18:07 33.940734 -118.380846 82 103ft 0kts
27-Sep-20 18:08 33.940738 -118.380807 82 103ft 2kts
27-Sep-20 18:09 33.940006 -118.379841 177 103ft 0kts
27-Sep-20 18:10 33.939824 -118.380317 264 103ft 0kts
27-Sep-20 18:11 33.939527 -118.383253 262 103ft 62kts
27-Sep-20 18:12 33.933686 -118.432180 259 1402ft 187kts
27-Sep-20 18:13 33.906681 -118.496039 233 3728ft 252kts
27-Sep-20 18:14 33.855411 -118.556892 196 6619ft 278kts
27-Sep-20 18:15 33.778135 -118.542599 166 9538ft 289kts
27-Sep-20 18:16 33.698597 -118.508132 133 11133ft 337kts
27-Sep-20 18:17 33.660539 -118.399766 106 13277ft 368kts
27-Sep-20 18:18 33.644680 -118.278014 88 15851ft 379kts
27-Sep-20 18:19 33.644676 -118.149549 88 18159ft 393kts
27-Sep-20 18:20 33.644582 -118.016120 88 20231ft 405kts
27-Sep-20 18:21 33.644335 -117.879338 88 22082ft 417kts
27-Sep-20 18:22 33.630078 -117.739926 104 23736ft 430kts
27-Sep-20 18:23 33.596196 -117.600776 104 25259ft 440kts
27-Sep-20 18:24 33.560959 -117.458367 104 26611ft 450kts
27-Sep-20 18:25 33.524756 -117.313000 105 27890ft 459kts
27-Sep-20 18:26 33.504280 -117.162115 90 29089ft 464kts
27-Sep-20 18:27 33.501828 -117.005816 89 30348ft 475kts
27-Sep-20 18:28 33.499418 -116.846858 88 31755ft 478kts
27-Sep-20 18:29 33.496857 -116.688167 88 33341ft 475kts
27-Sep-20 18:30 33.494122 -116.530605 88 34832ft 470kts
27-Sep-20 18:31 33.491447 -116.375256 88 36128ft 465kts
27-Sep-20 18:32 33.489116 -116.220518 88 37108ft 465kts
27-Sep-20 18:33 33.487033 -116.065958 84 37950ft 463kts
27-Sep-20 18:34 33.520120 -115.919206 68 38665ft 457kts
27-Sep-20 18:35 33.561702 -115.775611 68 38905ft 456kts
27-Sep-20 18:36 33.603442 -115.631731 68 38893ft 456kts
27-Sep-20 18:37 33.625967 -115.482642 92 38933ft 465kts
27-Sep-20 18:38 33.617569 -115.328359 90 38926ft 464kts
27-Sep-20 18:39 33.611715 -115.173992 90 38926ft 464kts
27-Sep-20 18:40 33.605988 -115.019259 90 38926ft 465kts
27-Sep-20 18:41 33.600088 -114.864256 90 38926ft 466kts
27-Sep-20 18:42 33.591619 -114.709137 93 38928ft 467kts
27-Sep-20 18:43 33.577727 -114.554660 93 38926ft 467kts
27-Sep-20 18:44 33.563751 -114.400063 93 38926ft 467kts
27-Sep-20 18:45 33.549563 -114.245162 94 38926ft 467kts
27-Sep-20 18:46 33.535278 -114.091139 94 38926ft 467kts
27-Sep-20 18:47 33.520692 -113.936316 94 38907ft 467kts
27-Sep-20 18:48 33.505895 -113.781290 94 38907ft 467kts
27-Sep-20 18:49 33.490966 -113.626894 94 38924ft 467kts
27-Sep-20 18:50 33.475821 -113.472300 94 38944ft 468kts
27-Sep-20 18:51 33.451104 -113.320234 111 38952ft 473kts
27-Sep-20 18:52 33.395702 -113.176879 113 38945ft 473kts
27-Sep-20 18:53 33.339627 -113.034802 113 38945ft 473kts
27-Sep-20 18:54 33.283351 -112.893117 112 38945ft 473kts
27-Sep-20 18:55 33.226765 -112.751246 112 38937ft 472kts
27-Sep-20 18:56 33.170074 -112.609694 112 38928ft 472kts
27-Sep-20 18:57 33.113435 -112.468864 112 38924ft 472kts
27-Sep-20 18:58 33.056545 -112.327990 113 38930ft 470kts
27-Sep-20 18:59 32.999703 -112.187821 113 38944ft 469kts
27-Sep-20 19:00 32.943061 -112.048689 113 38974ft 467kts
27-Sep-20 19:01 32.887388 -111.909419 107 38963ft 465kts
27-Sep-20 19:02 32.853341 -111.761756 102 38969ft 463kts
27-Sep-20 19:03 32.820210 -111.613514 102 38969ft 463kts
27-Sep-20 19:04 32.787026 -111.465611 102 38977ft 463kts
27-Sep-20 19:05 32.753731 -111.318070 102 38989ft 463kts
27-Sep-20 19:06 32.720230 -111.170479 102 38989ft 463kts
27-Sep-20 19:07 32.686419 -111.022394 102 38989ft 466kts
27-Sep-20 19:08 32.652206 -110.873446 102 38989ft 469kts
27-Sep-20 19:09 32.617727 -110.724249 102 39017ft 469kts
27-Sep-20 19:10 32.583034 -110.574994 102 39034ft 469kts
27-Sep-20 19:11 32.548222 -110.426128 102 39035ft 469kts
27-Sep-20 19:12 32.513114 -110.276870 103 39028ft 470kts
27-Sep-20 19:13 32.477991 -110.128414 103 39017ft 469kts
27-Sep-20 19:14 32.442556 -109.979498 103 39019ft 470kts
27-Sep-20 19:15 32.407105 -109.831382 103 39024ft 462kts
27-Sep-20 19:16 32.371887 -109.685020 103 39026ft 463kts
27-Sep-20 19:17 32.336438 -109.538533 103 39026ft 463kts
27-Sep-20 19:18 32.300876 -109.392396 103 39026ft 463kts
27-Sep-20 19:19 32.267927 -109.245389 95 39029ft 460kts
27-Sep-20 19:20 32.253351 -109.094794 94 39051ft 462kts
27-Sep-20 19:21 32.238762 -108.943296 94 39108ft 466kts
27-Sep-20 19:22 32.223988 -108.791413 94 39166ft 465kts
27-Sep-20 19:23 32.209025 -108.639456 94 39192ft 466kts
27-Sep-20 19:24 32.193879 -108.487525 94 39192ft 465kts
27-Sep-20 19:25 32.178571 -108.335858 94 39192ft 465kts
27-Sep-20 19:26 32.163099 -108.184431 94 39179ft 466kts
27-Sep-20 19:27 32.147416 -108.032728 94 39113ft 466kts
27-Sep-20 19:28 32.131545 -107.881004 94 39092ft 466kts
27-Sep-20 19:29 32.115507 -107.729461 94 39092ft 466kts
27-Sep-20 19:30 32.099292 -107.578010 94 39092ft 465kts
27-Sep-20 19:32 32.082914 -107.426767 94 39097ft 465kts
27-Sep-20 19:33 32.066386 -107.275875 95 39110ft 466kts
27-Sep-20 19:34 32.049628 -107.124583 95 39111ft 466kts
27-Sep-20 19:35 32.032673 -106.973181 95 39108ft 467kts
27-Sep-20 19:36 32.015405 -106.820626 94 39098ft 472kts
27-Sep-20 19:37 31.997822 -106.666977 94 39094ft 473kts
27-Sep-20 19:38 31.980094 -106.513728 94 39088ft 473kts
27-Sep-20 19:39 31.962159 -106.360367 94 39054ft 473kts
27-Sep-20 19:40 31.950794 -106.207096 88 39039ft 470kts
27-Sep-20 19:41 31.948312 -106.052724 88 39039ft 470kts
27-Sep-20 19:42 31.945626 -105.897146 88 39038ft 470kts
27-Sep-20 19:43 31.942790 -105.743608 88 39039ft 470kts
27-Sep-20 19:44 31.939767 -105.590027 88 39039ft 470kts
27-Sep-20 19:45 31.936549 -105.435868 88 39055ft 470kts
27-Sep-20 19:46 31.933240 -105.282259 88 39055ft 470kts
27-Sep-20 19:47 31.929997 -105.128672 88 39030ft 470kts
27-Sep-20 19:47 31.927098 -104.999841 88 39028ft 474kts
27-Sep-20 19:48 31.923422 -104.843485 89 39029ft 481kts
27-Sep-20 19:50 31.918863 -104.660473 89 38978ft 480kts
27-Sep-20 19:50 31.915442 -104.529250 89 38966ft 480kts
27-Sep-20 19:51 31.911171 -104.372250 89 38966ft 481kts
27-Sep-20 19:53 31.905934 -104.188981 89 38961ft 481kts
27-Sep-20 19:53 31.902032 -104.057976 89 38967ft 481kts
27-Sep-20 19:54 31.897158 -103.900366 89 38959ft 481kts
27-Sep-20 19:55 31.892113 -103.743428 89 38932ft 481kts
27-Sep-20 19:56 31.886859 -103.586015 89 38916ft 481kts
27-Sep-20 19:57 31.881398 -103.428364 89 38914ft 481kts
27-Sep-20 19:58 31.875787 -103.271163 89 38916ft 481kts
27-Sep-20 19:59 31.891960 -103.115743 78 38912ft 481kts
27-Sep-20 20:00 31.912692 -102.958885 79 38916ft 487kts
27-Sep-20 20:01 31.933351 -102.801288 79 38965ft 488kts
27-Sep-20 20:02 31.953649 -102.645061 79 38999ft 488kts
27-Sep-20 20:03 31.974000 -102.486852 79 38999ft 488kts
27-Sep-20 20:04 31.994092 -102.329101 80 38968ft 487kts
27-Sep-20 20:05 32.014029 -102.170987 80 38953ft 487kts
27-Sep-20 20:06 32.033780 -102.012692 80 38991ft 488kts
27-Sep-20 20:07 32.053252 -101.854978 80 38992ft 488kts
27-Sep-20 20:08 32.072577 -101.696809 80 38990ft 488kts
27-Sep-20 20:09 32.091686 -101.538717 79 38989ft 488kts
27-Sep-20 20:10 32.110642 -101.380271 80 38993ft 488kts
27-Sep-20 20:11 32.129275 -101.221321 80 38991ft 488kts
27-Sep-20 20:12 32.144192 -101.062449 82 38991ft 489kts
27-Sep-20 20:13 32.159261 -100.902691 82 39026ft 491kts
27-Sep-20 20:14 32.174189 -100.742757 83 39065ft 492kts
27-Sep-20 20:15 32.188982 -100.582092 83 39103ft 493kts
27-Sep-20 20:16 32.203588 -100.421229 83 39103ft 492kts
27-Sep-20 20:17 32.217978 -100.260456 83 39087ft 492kts
27-Sep-20 20:18 32.232162 -100.099673 83 39039ft 492kts
27-Sep-20 20:19 32.246157 -99.938676 83 39027ft 492kts
27-Sep-20 20:20 32.259950 -99.777626 83 39028ft 492kts
27-Sep-20 20:21 32.273543 -99.616471 83 39028ft 492kts
27-Sep-20 20:22 32.286887 -99.455794 83 39027ft 492kts
27-Sep-20 20:23 32.299774 -99.298270 84 36937ft 480kts
27-Sep-20 20:24 32.312438 -99.140864 84 33941ft 481kts
27-Sep-20 20:25 32.324859 -98.984142 84 30955ft 478kts
27-Sep-20 20:26 32.332562 -98.827509 86 28434ft 470kts
27-Sep-20 20:27 32.339515 -98.675742 86 25967ft 454kts
27-Sep-20 20:28 32.346017 -98.529672 86 23667ft 437kts
27-Sep-20 20:29 32.352122 -98.388298 86 21479ft 427kts
27-Sep-20 20:30 32.357939 -98.249966 86 19315ft 415kts
27-Sep-20 20:31 32.363462 -98.115246 86 17231ft 404kts
27-Sep-20 20:32 32.368702 -97.984046 86 15195ft 393kts
27-Sep-20 20:33 32.373606 -97.859315 86 13568ft 377kts
27-Sep-20 20:34 32.378321 -97.737789 85 11822ft 364kts
27-Sep-20 20:35 32.391726 -97.624493 54 10339ft 316kts
27-Sep-20 20:36 32.447129 -97.551922 39 9193ft 293kts
27-Sep-20 20:37 32.481735 -97.465558 81 7619ft 309kts
27-Sep-20 20:38 32.491206 -97.366783 82 7027ft 295kts
27-Sep-20 20:39 32.501623 -97.271639 70 7003ft 290kts
27-Sep-20 20:40 32.534170 -97.184344 66 6108ft 284kts
27-Sep-20 20:41 32.565861 -97.100344 66 5982ft 263kts
27-Sep-20 20:42 32.604041 -97.031890 20 5985ft 241kts
27-Sep-20 20:43 32.669224 -97.027266 358 4763ft 225kts
27-Sep-20 20:44 32.726817 -97.026942 358 3670ft 191kts
27-Sep-20 20:45 32.775404 -97.026688 358 2664ft 160kts
27-Sep-20 20:46 32.818475 -97.026485 358 1826ft 152kts
27-Sep-20 20:47 32.832861 -97.026386 349 1576ft 147kts
27-Sep-20 20:48 32.868477 -97.026134 353 833ft 135kts
27-Sep-20 20:49 32.896395 -97.026084 1 617ft 46kts
27-Sep-20 20:50 32.901067 -97.030195 270 617ft 15kts

Navigation Log

Ident Type
Flight plan parsing failed, navigation log unavailable